Centerville, California
Current Conditions -  °F | °C
As of 11:53 AM on Friday 31 Oct 2014 (Local Time) from KFAT Reporting Station
Scattered Clouds Scattered Clouds  
Wind Chill: 74°   Ceiling: Unl
Heat Index: 74°   Visibility: 10mi
Dew Point: 49°   Wind: 9mph
Humidity: 41%   Direction: 180°S
Pressure: 29.88"   Gusts: 17mph
Location:  36.8137°N, 119.374°W
Report Text: KFAT 311853Z 18008G15KT 10SM SCT200 23/09 A2988 RMK AO2 SLP115 MTNS OBSC HZ DSNT N-E-S T02330094
Loading
Personal Weather Stations






























Interactive Weather Map
Tropical Storm Tracking
New forecast layout! Learn more

10-Day Weather Forecast

Advertisements
Track Severe Weather on mobile